Date,TemperatureHighF,TemperatureAvgF,TemperatureLowF,DewpointHighF,DewpointAvgF,DewpointLowF,HumidityHigh,HumidityAvg,HumidityLow,PressureMaxIn,PressureMinIn,WindSpeedMaxMPH,WindSpeedAvgMPH,GustSpeedMaxMPH,PrecipitationSumIn
2013-4-1,64,52,40,54,43,34,99,76,44,30.10,29.91,6,0,9,0.00
2013-4-2,55,46,34,34,24,18,66,44,26,30.26,30.10,4,0,8,0.00
2013-4-3,56,48,34,27,22,19,63,38,26,30.31,30.21,5,1,11,0.00
2013-4-4,50,43,40,42,35,19,96,77,31,30.22,30.02,3,0,7,0.65
2013-4-5,62,50,39,45,38,32,98,70,33,30.13,30.01,4,0,7,0.01
2013-4-6,71,55,38,45,38,32,93,57,27,30.22,30.07,7,0,8,0.00
2013-4-7,72,64,50,49,43,35,65,47,37,30.16,30.04,8,1,13,0.00
2013-4-8,76,65,51,56,49,43,82,58,44,30.10,30.00,7,1,14,0.00
2013-4-9,80,68,54,59,54,49,87,62,43,30.17,30.00,6,0,14,0.00
2013-4-10,83,72,57,61,56,51,87,60,43,30.10,29.86,3,0,9,0.00
2013-4-11,83,71,61,63,57,54,95,62,40,29.88,29.61,4,1,17,0.93
2013-4-12,63,58,51,60,48,37,98,71,40,29.95,29.56,7,1,12,0.19
2013-4-13,68,57,42,46,40,34,93,55,31,30.09,29.95,4,0,7,0.00
2013-4-14,69,57,44,51,44,36,88,65,41,30.06,29.94,6,0,10,0.01
2013-4-15,75,65,53,58,54,48,90,69,52,30.08,29.93,3,0,8,0.00
2013-4-16,82,69,56,64,59,52,94,71,50,30.22,30.08,4,0,9,0.00
2013-4-17,74,66,61,64,60,58,92,83,69,30.22,30.04,3,0,8,0.02
2013-4-18,82,70,58,64,57,52,98,68,37,30.05,29.81,8,1,17,0.00
2013-4-19,74,59,45,62,50,35,96,76,55,30.09,29.64,8,1,17,1.19
2013-4-20,61,48,34,39,32,29,94,57,32,30.32,30.10,5,0,7,0.00
2013-4-21,65,52,40,43,35,31,83,55,30,30.42,30.27,5,0,6,0.00
2013-4-22,69,57,42,47,40,36,88,57,37,30.36,30.15,2,0,6,0.00
2013-4-23,72,59,44,51,45,40,91,62,42,30.24,30.03,3,0,7,0.00
2013-4-24,72,59,46,62,52,43,95,79,56,30.24,29.98,9,0,17,0.30
2013-4-25,63,52,39,45,39,33,96,66,37,30.38,30.24,2,0,7,0.00
2013-4-26,67,55,39,47,40,33,92,60,33,30.43,30.31,3,0,5,0.00
2013-4-27,56,54,52,55,51,43,98,91,64,30.38,30.13,0,0,3,0.79
2013-4-28,58,55,52,58,55,51,100,99,98,30.14,29.96,3,0,9,1.50
2013-4-29,71,60,52,59,55,52,100,85,55,30.06,29.94,1,0,8,0.00
2013-4-30,78,65,50,62,54,49,98,71,42,30.08,29.97,5,0,7,0.00